Airfield :
LOGIN :

Register | Disclaimer

   EN    FR    IT 

 










Legend :    VFR   Marginal VFR   IFR   Intensive IFR   Very Intensive IFR
Visi :
Ceiling :
>= 8 km
>= 3000ft
5 to 8 km
1000 to 3000 ft
1500m to 5 km
500 to 1000 ft
800 to 1500m
200 to 500 ft
< 800m
< 200 ft
Symbols :   Thunderstorms  Fog  Heavy snow  Heavy precipitations  Wind > 20 kt
SIGMETs :     Misc.  Thunderstorms  Icing  Turbulence  Mountain Waves  Volcanic Ashes






- Airport Elevation : 13 ft
- IATA code : CEQ


LFMD - Cannes Mandelieu

CURRENT METAR :
  • 290800Z AUTO 16006KT 110V220 9999 FEW010 24/18 Q1003 NOSIG

EXPIRED METARs :
  • 290730Z AUTO 16007KT 120V190 9999 BKN028 24/18 Q1003 NOSIG
  • 290700Z AUTO 15005KT 090V190 9999 SCT026 BKN032 BKN040 23/18 Q1003 NOSIG
  • 290630Z AUTO VRB02KT 9999 BKN024 BKN032 OVC040 24/18 Q1003 BECMG 18012KT
  • 290600Z AUTO VRB03KT 9999 FEW027 23/17 Q1003 NOSIG
  • 290530Z AUTO 02003KT 350V050 9999 BKN025 22/16 Q1003 BECMG 18012KT

TAF TAF LFMD
Valid from the 29 at 03:00 until the 30 at 03:00 UTC


290200Z 2903/3003 03005KT CAVOK
PROB30
TEMPO 2903/2906 BKN012
BECMG 2907/2909 18012KT
TEMPO 2913/2917 FEW040TCU
TEMPO 2913/2923 BKN025
BECMG 2917/2919 VRB05KT
ATIS : +33 4 92 19 94 92



MET'MAP, your aeronautical weather chart ! - Copyright ORBIFLY December 2007 - Disclaimer

ORBIFLY MET'MAP TEAM :

Programming & Development : Alexandra Zaïnal
Original concept : Baudouin d'Aumeries
Technical & hardware support : Manuel Goepfert
Assistance : Marc-Olivier Méhu

Contact : metmap@orbifly.com




SOURCES & CREDITS :

   NOAA